sensor_id;sensor_type;location;lat;lon;timestamp;P1;durP1;ratioP1;P2;durP2;ratioP2
71622;SDS011;59473;53.214;5.728;2022-12-18T00:01:29;111.88;;;35.70;;
71622;SDS011;59473;53.214;5.728;2022-12-18T00:03:56;112.67;;;33.70;;
71622;SDS011;59473;53.214;5.728;2022-12-18T00:06:21;97.33;;;32.70;;
71622;SDS011;59473;53.214;5.728;2022-12-18T00:08:47;84.68;;;31.08;;
71622;SDS011;59473;53.214;5.728;2022-12-18T00:11:13;102.53;;;32.07;;
71622;SDS011;59473;53.214;5.728;2022-12-18T00:13:39;111.43;;;35.00;;
71622;SDS011;59473;53.214;5.728;2022-12-18T00:16:07;103.47;;;34.40;;
71622;SDS011;59473;53.214;5.728;2022-12-18T00:18:33;74.63;;;28.02;;
71622;SDS011;59473;53.214;5.728;2022-12-18T00:20:59;118.93;;;36.17;;
71622;SDS011;59473;53.214;5.728;2022-12-18T00:23:25;98.43;;;33.75;;
71622;SDS011;59473;53.214;5.728;2022-12-18T00:25:50;96.57;;;32.87;;
71622;SDS011;59473;53.214;5.728;2022-12-18T00:28:15;95.43;;;32.10;;
71622;SDS011;59473;53.214;5.728;2022-12-18T00:30:40;108.67;;;35.73;;
71622;SDS011;59473;53.214;5.728;2022-12-18T00:33:06;98.03;;;32.30;;
71622;SDS011;59473;53.214;5.728;2022-12-18T00:35:31;93.63;;;30.97;;
71622;SDS011;59473;53.214;5.728;2022-12-18T00:37:56;101.20;;;31.37;;
71622;SDS011;59473;53.214;5.728;2022-12-18T00:40:22;84.93;;;30.10;;
71622;SDS011;59473;53.214;5.728;2022-12-18T00:42:47;94.27;;;31.40;;
71622;SDS011;59473;53.214;5.728;2022-12-18T00:45:30;107.18;;;35.63;;
71622;SDS011;59473;53.214;5.728;2022-12-18T00:47:56;94.47;;;30.30;;
71622;SDS011;59473;53.214;5.728;2022-12-18T00:50:22;100.60;;;31.85;;
71622;SDS011;59473;53.214;5.728;2022-12-18T00:52:47;106.87;;;32.97;;
71622;SDS011;59473;53.214;5.728;2022-12-18T00:55:13;90.80;;;31.10;;
71622;SDS011;59473;53.214;5.728;2022-12-18T00:57:38;86.78;;;30.92;;
71622;SDS011;59473;53.214;5.728;2022-12-18T01:00:04;99.50;;;35.37;;
71622;SDS011;59473;53.214;5.728;2022-12-18T01:02:30;89.95;;;31.50;;
71622;SDS011;59473;53.214;5.728;2022-12-18T01:04:55;83.60;;;30.80;;
71622;SDS011;59473;53.214;5.728;2022-12-18T01:07:20;82.53;;;29.47;;
71622;SDS011;59473;53.214;5.728;2022-12-18T01:09:45;87.10;;;29.37;;
71622;SDS011;59473;53.214;5.728;2022-12-18T01:12:10;95.37;;;30.20;;
71622;SDS011;59473;53.214;5.728;2022-12-18T01:14:36;104.13;;;34.03;;
71622;SDS011;59473;53.214;5.728;2022-12-18T01:17:02;94.38;;;31.00;;
71622;SDS011;59473;53.214;5.728;2022-12-18T01:19:28;84.70;;;28.47;;
71622;SDS011;59473;53.214;5.728;2022-12-18T01:21:53;84.97;;;31.07;;
71622;SDS011;59473;53.214;5.728;2022-12-18T01:24:19;77.73;;;28.63;;
71622;SDS011;59473;53.214;5.728;2022-12-18T01:26:44;70.65;;;24.83;;
71622;SDS011;59473;53.214;5.728;2022-12-18T01:29:10;102.23;;;33.53;;
71622;SDS011;59473;53.214;5.728;2022-12-18T01:31:35;84.87;;;30.67;;
71622;SDS011;59473;53.214;5.728;2022-12-18T01:34:00;94.33;;;32.37;;
71622;SDS011;59473;53.214;5.728;2022-12-18T01:36:27;86.13;;;27.83;;
71622;SDS011;59473;53.214;5.728;2022-12-18T01:38:52;93.00;;;31.92;;
71622;SDS011;59473;53.214;5.728;2022-12-18T01:41:20;85.67;;;26.27;;
71622;SDS011;59473;53.214;5.728;2022-12-18T01:46:14;77.07;;;26.92;;
71622;SDS011;59473;53.214;5.728;2022-12-18T01:48:40;90.07;;;30.93;;
71622;SDS011;59473;53.214;5.728;2022-12-18T01:51:06;78.60;;;29.80;;
71622;SDS011;59473;53.214;5.728;2022-12-18T01:53:31;85.18;;;29.67;;
71622;SDS011;59473;53.214;5.728;2022-12-18T01:55:57;78.23;;;28.33;;
71622;SDS011;59473;53.214;5.728;2022-12-18T01:58:27;70.47;;;25.13;;
71622;SDS011;59473;53.214;5.728;2022-12-18T02:00:55;85.80;;;30.43;;
71622;SDS011;59473;53.214;5.728;2022-12-18T02:03:20;82.32;;;29.38;;
71622;SDS011;59473;53.214;5.728;2022-12-18T02:05:47;75.80;;;26.40;;
71622;SDS011;59473;53.214;5.728;2022-12-18T02:08:22;85.97;;;30.70;;
71622;SDS011;59473;53.214;5.728;2022-12-18T02:16:05;69.43;;;26.37;;
71622;SDS011;59473;53.214;5.728;2022-12-18T02:18:33;75.47;;;26.73;;
71622;SDS011;59473;53.214;5.728;2022-12-18T02:26:16;82.57;;;29.73;;
71622;SDS011;59473;53.214;5.728;2022-12-18T02:28:53;87.57;;;29.00;;
71622;SDS011;59473;53.214;5.728;2022-12-18T02:31:21;74.17;;;26.10;;
71622;SDS011;59473;53.214;5.728;2022-12-18T02:33:49;99.10;;;32.08;;
71622;SDS011;59473;53.214;5.728;2022-12-18T02:36:14;76.35;;;27.60;;
71622;SDS011;59473;53.214;5.728;2022-12-18T02:38:41;82.38;;;30.17;;
71622;SDS011;59473;53.214;5.728;2022-12-18T02:41:07;80.50;;;29.08;;
71622;SDS011;59473;53.214;5.728;2022-12-18T02:43:32;88.07;;;30.90;;
71622;SDS011;59473;53.214;5.728;2022-12-18T02:45:59;95.40;;;34.83;;
71622;SDS011;59473;53.214;5.728;2022-12-18T02:48:29;82.63;;;30.50;;
71622;SDS011;59473;53.214;5.728;2022-12-18T03:01:15;82.77;;;26.33;;
71622;SDS011;59473;53.214;5.728;2022-12-18T03:03:44;80.90;;;26.45;;
71622;SDS011;59473;53.214;5.728;2022-12-18T03:06:30;73.47;;;26.10;;
71622;SDS011;59473;53.214;5.728;2022-12-18T03:09:01;78.13;;;26.42;;
71622;SDS011;59473;53.214;5.728;2022-12-18T03:11:28;82.35;;;27.75;;
71622;SDS011;59473;53.214;5.728;2022-12-18T03:14:13;93.10;;;28.47;;
71622;SDS011;59473;53.214;5.728;2022-12-18T03:16:40;78.85;;;27.27;;
71622;SDS011;59473;53.214;5.728;2022-12-18T03:19:08;68.15;;;24.83;;
71622;SDS011;59473;53.214;5.728;2022-12-18T03:21:39;71.95;;;23.70;;
71622;SDS011;59473;53.214;5.728;2022-12-18T03:24:06;92.10;;;28.27;;
71622;SDS011;59473;53.214;5.728;2022-12-18T03:26:32;54.77;;;23.47;;
71622;SDS011;59473;53.214;5.728;2022-12-18T03:28:59;88.40;;;28.42;;
71622;SDS011;59473;53.214;5.728;2022-12-18T03:31:27;79.28;;;26.83;;
71622;SDS011;59473;53.214;5.728;2022-12-18T03:33:55;94.93;;;29.80;;
71622;SDS011;59473;53.214;5.728;2022-12-18T03:36:21;85.53;;;28.58;;
71622;SDS011;59473;53.214;5.728;2022-12-18T03:38:46;81.95;;;27.08;;
71622;SDS011;59473;53.214;5.728;2022-12-18T03:43:49;83.82;;;25.98;;
71622;SDS011;59473;53.214;5.728;2022-12-18T03:46:28;79.30;;;27.77;;
71622;SDS011;59473;53.214;5.728;2022-12-18T03:49:02;76.07;;;24.75;;
71622;SDS011;59473;53.214;5.728;2022-12-18T03:53:59;81.97;;;28.00;;
71622;SDS011;59473;53.214;5.728;2022-12-18T03:56:26;69.88;;;25.30;;
71622;SDS011;59473;53.214;5.728;2022-12-18T03:58:52;68.83;;;26.47;;
71622;SDS011;59473;53.214;5.728;2022-12-18T04:01:18;77.07;;;25.58;;
71622;SDS011;59473;53.214;5.728;2022-12-18T04:03:44;139.00;;;30.50;;
71622;SDS011;59473;53.214;5.728;2022-12-18T04:06:11;81.80;;;26.35;;
71622;SDS011;59473;53.214;5.728;2022-12-18T04:08:36;82.70;;;26.97;;
71622;SDS011;59473;53.214;5.728;2022-12-18T04:11:02;83.60;;;26.23;;
71622;SDS011;59473;53.214;5.728;2022-12-18T04:13:28;91.03;;;26.60;;
71622;SDS011;59473;53.214;5.728;2022-12-18T04:15:54;83.20;;;25.80;;
71622;SDS011;59473;53.214;5.728;2022-12-18T04:18:19;87.63;;;28.57;;
71622;SDS011;59473;53.214;5.728;2022-12-18T04:20:44;92.83;;;29.27;;
71622;SDS011;59473;53.214;5.728;2022-12-18T04:23:10;86.70;;;28.00;;
71622;SDS011;59473;53.214;5.728;2022-12-18T04:25:35;89.03;;;26.80;;
71622;SDS011;59473;53.214;5.728;2022-12-18T04:28:00;79.60;;;27.30;;
71622;SDS011;59473;53.214;5.728;2022-12-18T04:30:25;71.97;;;25.50;;
71622;SDS011;59473;53.214;5.728;2022-12-18T04:32:50;104.13;;;31.53;;
71622;SDS011;59473;53.214;5.728;2022-12-18T04:35:16;76.20;;;25.93;;
71622;SDS011;59473;53.214;5.728;2022-12-18T04:37:41;92.70;;;30.60;;
71622;SDS011;59473;53.214;5.728;2022-12-18T04:40:06;92.03;;;28.00;;
71622;SDS011;59473;53.214;5.728;2022-12-18T04:42:32;70.53;;;25.07;;
71622;SDS011;59473;53.214;5.728;2022-12-18T04:44:57;93.90;;;29.77;;
71622;SDS011;59473;53.214;5.728;2022-12-18T04:47:22;96.63;;;31.23;;
71622;SDS011;59473;53.214;5.728;2022-12-18T04:49:47;77.93;;;29.07;;
71622;SDS011;59473;53.214;5.728;2022-12-18T04:52:13;80.07;;;27.83;;
71622;SDS011;59473;53.214;5.728;2022-12-18T04:54:38;84.40;;;29.73;;
71622;SDS011;59473;53.214;5.728;2022-12-18T04:57:03;91.83;;;29.73;;
71622;SDS011;59473;53.214;5.728;2022-12-18T04:59:28;88.33;;;29.87;;
71622;SDS011;59473;53.214;5.728;2022-12-18T05:01:54;85.80;;;28.60;;
71622;SDS011;59473;53.214;5.728;2022-12-18T05:04:19;86.70;;;27.30;;
71622;SDS011;59473;53.214;5.728;2022-12-18T05:06:44;161.77;;;30.10;;
71622;SDS011;59473;53.214;5.728;2022-12-18T05:09:09;82.73;;;27.97;;
71622;SDS011;59473;53.214;5.728;2022-12-18T05:11:34;83.97;;;29.77;;
71622;SDS011;59473;53.214;5.728;2022-12-18T05:14:00;75.67;;;27.40;;
71622;SDS011;59473;53.214;5.728;2022-12-18T05:16:25;79.40;;;28.80;;
71622;SDS011;59473;53.214;5.728;2022-12-18T05:18:50;87.93;;;28.43;;
71622;SDS011;59473;53.214;5.728;2022-12-18T05:21:15;72.60;;;25.93;;
71622;SDS011;59473;53.214;5.728;2022-12-18T05:23:40;79.03;;;26.43;;
71622;SDS011;59473;53.214;5.728;2022-12-18T05:26:06;78.10;;;27.20;;
71622;SDS011;59473;53.214;5.728;2022-12-18T05:28:33;82.35;;;28.52;;
71622;SDS011;59473;53.214;5.728;2022-12-18T05:30:59;71.38;;;25.42;;
71622;SDS011;59473;53.214;5.728;2022-12-18T05:33:25;70.23;;;26.20;;
71622;SDS011;59473;53.214;5.728;2022-12-18T05:35:52;74.82;;;24.98;;
71622;SDS011;59473;53.214;5.728;2022-12-18T05:38:17;67.00;;;25.42;;
71622;SDS011;59473;53.214;5.728;2022-12-18T05:40:42;73.03;;;26.37;;
71622;SDS011;59473;53.214;5.728;2022-12-18T05:43:08;75.75;;;27.15;;
71622;SDS011;59473;53.214;5.728;2022-12-18T05:45:36;85.97;;;29.08;;
71622;SDS011;59473;53.214;5.728;2022-12-18T05:48:01;66.90;;;23.77;;
71622;SDS011;59473;53.214;5.728;2022-12-18T05:50:26;77.53;;;26.67;;
71622;SDS011;59473;53.214;5.728;2022-12-18T05:52:51;79.90;;;27.00;;
71622;SDS011;59473;53.214;5.728;2022-12-18T05:55:17;77.00;;;27.67;;
71622;SDS011;59473;53.214;5.728;2022-12-18T05:57:42;79.40;;;29.27;;
71622;SDS011;59473;53.214;5.728;2022-12-18T06:00:07;79.77;;;27.83;;
71622;SDS011;59473;53.214;5.728;2022-12-18T06:02:33;72.95;;;26.58;;
71622;SDS011;59473;53.214;5.728;2022-12-18T06:04:58;73.93;;;28.53;;
71622;SDS011;59473;53.214;5.728;2022-12-18T06:07:23;74.07;;;26.67;;
71622;SDS011;59473;53.214;5.728;2022-12-18T06:09:48;87.93;;;32.53;;
71622;SDS011;59473;53.214;5.728;2022-12-18T06:12:13;67.87;;;26.37;;
71622;SDS011;59473;53.214;5.728;2022-12-18T06:14:39;79.50;;;28.60;;
71622;SDS011;59473;53.214;5.728;2022-12-18T06:17:04;68.70;;;28.23;;
71622;SDS011;59473;53.214;5.728;2022-12-18T06:19:29;73.83;;;26.17;;
71622;SDS011;59473;53.214;5.728;2022-12-18T06:21:54;62.27;;;24.83;;
71622;SDS011;59473;53.214;5.728;2022-12-18T06:24:22;53.28;;;21.92;;
71622;SDS011;59473;53.214;5.728;2022-12-18T06:26:47;57.40;;;22.63;;
71622;SDS011;59473;53.214;5.728;2022-12-18T06:29:13;76.43;;;24.70;;
71622;SDS011;59473;53.214;5.728;2022-12-18T06:31:38;71.93;;;27.87;;
71622;SDS011;59473;53.214;5.728;2022-12-18T06:34:03;57.97;;;22.10;;
71622;SDS011;59473;53.214;5.728;2022-12-18T06:36:28;57.80;;;23.73;;
71622;SDS011;59473;53.214;5.728;2022-12-18T06:38:54;61.23;;;21.87;;
71622;SDS011;59473;53.214;5.728;2022-12-18T06:41:20;54.17;;;23.37;;
71622;SDS011;59473;53.214;5.728;2022-12-18T06:43:45;59.13;;;24.70;;
71622;SDS011;59473;53.214;5.728;2022-12-18T06:46:11;71.20;;;25.00;;
71622;SDS011;59473;53.214;5.728;2022-12-18T06:48:36;57.53;;;23.00;;
71622;SDS011;59473;53.214;5.728;2022-12-18T06:51:02;59.80;;;23.97;;
71622;SDS011;59473;53.214;5.728;2022-12-18T06:53:28;56.65;;;24.75;;
71622;SDS011;59473;53.214;5.728;2022-12-18T06:56:03;58.67;;;22.73;;
71622;SDS011;59473;53.214;5.728;2022-12-18T06:58:29;55.80;;;22.75;;
71622;SDS011;59473;53.214;5.728;2022-12-18T07:00:58;56.00;;;26.00;;
71622;SDS011;59473;53.214;5.728;2022-12-18T07:03:27;52.42;;;22.63;;
71622;SDS011;59473;53.214;5.728;2022-12-18T07:05:52;56.67;;;23.53;;
71622;SDS011;59473;53.214;5.728;2022-12-18T07:08:17;49.97;;;22.20;;
71622;SDS011;59473;53.214;5.728;2022-12-18T07:10:43;57.97;;;23.40;;
71622;SDS011;59473;53.214;5.728;2022-12-18T07:13:08;60.47;;;25.88;;
71622;SDS011;59473;53.214;5.728;2022-12-18T07:15:33;62.90;;;23.63;;
71622;SDS011;59473;53.214;5.728;2022-12-18T07:17:59;51.10;;;22.03;;
71622;SDS011;59473;53.214;5.728;2022-12-18T07:20:24;49.93;;;21.40;;
71622;SDS011;59473;53.214;5.728;2022-12-18T07:22:49;55.17;;;24.17;;
71622;SDS011;59473;53.214;5.728;2022-12-18T07:25:14;34.90;;;17.20;;
71622;SDS011;59473;53.214;5.728;2022-12-18T07:27:39;47.92;;;22.15;;
71622;SDS011;59473;53.214;5.728;2022-12-18T07:30:05;53.07;;;22.20;;
71622;SDS011;59473;53.214;5.728;2022-12-18T07:32:30;52.67;;;22.45;;
71622;SDS011;59473;53.214;5.728;2022-12-18T07:34:55;41.27;;;20.33;;
71622;SDS011;59473;53.214;5.728;2022-12-18T07:37:21;52.53;;;23.87;;
71622;SDS011;59473;53.214;5.728;2022-12-18T07:39:46;55.47;;;22.30;;
71622;SDS011;59473;53.214;5.728;2022-12-18T07:42:11;51.10;;;21.43;;
71622;SDS011;59473;53.214;5.728;2022-12-18T07:44:55;84.50;;;32.63;;
71622;SDS011;59473;53.214;5.728;2022-12-18T07:47:20;68.23;;;28.77;;
71622;SDS011;59473;53.214;5.728;2022-12-18T07:49:45;54.80;;;25.03;;
71622;SDS011;59473;53.214;5.728;2022-12-18T07:52:10;42.47;;;20.40;;
71622;SDS011;59473;53.214;5.728;2022-12-18T07:54:37;35.43;;;17.40;;
71622;SDS011;59473;53.214;5.728;2022-12-18T07:57:02;45.83;;;20.33;;
71622;SDS011;59473;53.214;5.728;2022-12-18T07:59:27;49.07;;;21.17;;
71622;SDS011;59473;53.214;5.728;2022-12-18T08:01:52;40.37;;;19.73;;
71622;SDS011;59473;53.214;5.728;2022-12-18T08:04:18;49.00;;;22.00;;
71622;SDS011;59473;53.214;5.728;2022-12-18T08:06:43;40.90;;;19.70;;
71622;SDS011;59473;53.214;5.728;2022-12-18T08:09:09;46.00;;;21.40;;
71622;SDS011;59473;53.214;5.728;2022-12-18T08:11:34;35.63;;;16.95;;
71622;SDS011;59473;53.214;5.728;2022-12-18T08:13:59;47.27;;;22.07;;
71622;SDS011;59473;53.214;5.728;2022-12-18T08:16:25;41.33;;;20.63;;
71622;SDS011;59473;53.214;5.728;2022-12-18T08:18:51;55.57;;;24.63;;
71622;SDS011;59473;53.214;5.728;2022-12-18T08:21:18;38.60;;;18.50;;
71622;SDS011;59473;53.214;5.728;2022-12-18T08:23:43;43.45;;;19.85;;
71622;SDS011;59473;53.214;5.728;2022-12-18T08:26:12;44.83;;;21.33;;
71622;SDS011;59473;53.214;5.728;2022-12-18T08:28:38;42.38;;;18.92;;
71622;SDS011;59473;53.214;5.728;2022-12-18T08:31:03;41.97;;;18.83;;
71622;SDS011;59473;53.214;5.728;2022-12-18T08:33:29;37.85;;;18.63;;
71622;SDS011;59473;53.214;5.728;2022-12-18T08:35:54;37.13;;;18.00;;
71622;SDS011;59473;53.214;5.728;2022-12-18T08:38:19;35.83;;;19.93;;
71622;SDS011;59473;53.214;5.728;2022-12-18T08:40:44;44.60;;;20.73;;
71622;SDS011;59473;53.214;5.728;2022-12-18T08:43:10;36.17;;;17.23;;
71622;SDS011;59473;53.214;5.728;2022-12-18T08:45:54;37.07;;;17.90;;
71622;SDS011;59473;53.214;5.728;2022-12-18T08:48:19;45.17;;;19.03;;
71622;SDS011;59473;53.214;5.728;2022-12-18T08:50:53;38.83;;;16.13;;
71622;SDS011;59473;53.214;5.728;2022-12-18T08:53:18;26.40;;;15.00;;
71622;SDS011;59473;53.214;5.728;2022-12-18T08:55:43;38.97;;;19.93;;
71622;SDS011;59473;53.214;5.728;2022-12-18T08:58:08;46.13;;;22.73;;
71622;SDS011;59473;53.214;5.728;2022-12-18T09:00:34;44.20;;;19.70;;
71622;SDS011;59473;53.214;5.728;2022-12-18T09:02:59;42.97;;;20.73;;
71622;SDS011;59473;53.214;5.728;2022-12-18T09:05:24;31.33;;;17.50;;
71622;SDS011;59473;53.214;5.728;2022-12-18T09:07:49;35.50;;;17.97;;
71622;SDS011;59473;53.214;5.728;2022-12-18T09:10:14;25.07;;;14.60;;
71622;SDS011;59473;53.214;5.728;2022-12-18T09:12:40;41.50;;;20.70;;
71622;SDS011;59473;53.214;5.728;2022-12-18T09:15:05;34.23;;;18.10;;
71622;SDS011;59473;53.214;5.728;2022-12-18T09:17:30;38.13;;;20.13;;
71622;SDS011;59473;53.214;5.728;2022-12-18T09:19:56;44.53;;;22.37;;
71622;SDS011;59473;53.214;5.728;2022-12-18T09:22:21;54.10;;;23.83;;
71622;SDS011;59473;53.214;5.728;2022-12-18T09:24:46;46.90;;;21.42;;
71622;SDS011;59473;53.214;5.728;2022-12-18T09:27:13;58.67;;;25.40;;
71622;SDS011;59473;53.214;5.728;2022-12-18T09:29:38;56.87;;;24.57;;
71622;SDS011;59473;53.214;5.728;2022-12-18T09:32:04;35.10;;;16.87;;
71622;SDS011;59473;53.214;5.728;2022-12-18T09:34:29;42.30;;;21.20;;
71622;SDS011;59473;53.214;5.728;2022-12-18T09:36:54;42.83;;;19.87;;
71622;SDS011;59473;53.214;5.728;2022-12-18T09:39:19;39.67;;;19.23;;
71622;SDS011;59473;53.214;5.728;2022-12-18T09:46:40;33.20;;;17.95;;
71622;SDS011;59473;53.214;5.728;2022-12-18T09:49:10;28.83;;;16.92;;
71622;SDS011;59473;53.214;5.728;2022-12-18T09:51:37;33.37;;;17.70;;
71622;SDS011;59473;53.214;5.728;2022-12-18T09:54:05;36.97;;;19.50;;
71622;SDS011;59473;53.214;5.728;2022-12-18T09:56:35;32.22;;;18.10;;
71622;SDS011;59473;53.214;5.728;2022-12-18T09:59:03;28.42;;;15.82;;
71622;SDS011;59473;53.214;5.728;2022-12-18T10:01:28;33.83;;;17.77;;
71622;SDS011;59473;53.214;5.728;2022-12-18T10:03:55;28.87;;;16.47;;
71622;SDS011;59473;53.214;5.728;2022-12-18T10:06:25;24.75;;;14.68;;
71622;SDS011;59473;53.214;5.728;2022-12-18T10:16:39;35.08;;;18.88;;
71622;SDS011;59473;53.214;5.728;2022-12-18T10:22:02;32.72;;;17.52;;
71622;SDS011;59473;53.214;5.728;2022-12-18T10:29:36;33.33;;;19.00;;
71622;SDS011;59473;53.214;5.728;2022-12-18T10:32:01;32.73;;;18.33;;
71622;SDS011;59473;53.214;5.728;2022-12-18T10:34:26;32.77;;;18.63;;
71622;SDS011;59473;53.214;5.728;2022-12-18T10:36:51;36.03;;;19.33;;
71622;SDS011;59473;53.214;5.728;2022-12-18T10:39:20;37.20;;;19.93;;
71622;SDS011;59473;53.214;5.728;2022-12-18T10:41:47;28.92;;;16.38;;
71622;SDS011;59473;53.214;5.728;2022-12-18T10:44:22;36.37;;;20.40;;
71622;SDS011;59473;53.214;5.728;2022-12-18T10:46:53;45.50;;;26.20;;
71622;SDS011;59473;53.214;5.728;2022-12-18T10:49:27;47.28;;;30.13;;
71622;SDS011;59473;53.214;5.728;2022-12-18T10:54:37;19.17;;;11.68;;
71622;SDS011;59473;53.214;5.728;2022-12-18T10:59:54;26.00;;;14.93;;
71622;SDS011;59473;53.214;5.728;2022-12-18T11:02:27;22.33;;;14.57;;
71622;SDS011;59473;53.214;5.728;2022-12-18T11:04:53;24.13;;;14.18;;
71622;SDS011;59473;53.214;5.728;2022-12-18T11:07:18;24.57;;;14.30;;
71622;SDS011;59473;53.214;5.728;2022-12-18T11:09:43;23.90;;;13.83;;
71622;SDS011;59473;53.214;5.728;2022-12-18T11:12:15;21.97;;;13.37;;
71622;SDS011;59473;53.214;5.728;2022-12-18T11:14:51;21.05;;;12.43;;
71622;SDS011;59473;53.214;5.728;2022-12-18T11:17:20;22.52;;;12.50;;
71622;SDS011;59473;53.214;5.728;2022-12-18T11:19:51;17.35;;;12.35;;
71622;SDS011;59473;53.214;5.728;2022-12-18T11:22:19;20.97;;;12.70;;
71622;SDS011;59473;53.214;5.728;2022-12-18T11:24:51;17.42;;;11.15;;
71622;SDS011;59473;53.214;5.728;2022-12-18T11:27:17;17.65;;;11.70;;
71622;SDS011;59473;53.214;5.728;2022-12-18T11:29:43;20.92;;;12.57;;
71622;SDS011;59473;53.214;5.728;2022-12-18T11:34:39;55.10;;;23.80;;
71622;SDS011;59473;53.214;5.728;2022-12-18T11:37:07;30.15;;;13.82;;
71622;SDS011;59473;53.214;5.728;2022-12-18T11:39:41;19.67;;;13.13;;
71622;SDS011;59473;53.214;5.728;2022-12-18T11:42:19;20.85;;;12.73;;
71622;SDS011;59473;53.214;5.728;2022-12-18T11:44:48;20.98;;;12.13;;
71622;SDS011;59473;53.214;5.728;2022-12-18T11:49:40;19.40;;;13.50;;
71622;SDS011;59473;53.214;5.728;2022-12-18T11:52:15;20.15;;;11.02;;
71622;SDS011;59473;53.214;5.728;2022-12-18T11:54:41;19.38;;;11.23;;
71622;SDS011;59473;53.214;5.728;2022-12-18T11:59:41;17.37;;;11.83;;
71622;SDS011;59473;53.214;5.728;2022-12-18T12:02:15;21.07;;;10.83;;
71622;SDS011;59473;53.214;5.728;2022-12-18T12:15:10;24.03;;;14.47;;
71622;SDS011;59473;53.214;5.728;2022-12-18T12:17:42;29.08;;;14.95;;
71622;SDS011;59473;53.214;5.728;2022-12-18T12:30:13;19.08;;;13.63;;
71622;SDS011;59473;53.214;5.728;2022-12-18T12:32:47;20.58;;;12.70;;
71622;SDS011;59473;53.214;5.728;2022-12-18T12:36:02;18.63;;;12.48;;
71622;SDS011;59473;53.214;5.728;2022-12-18T12:38:06;20.00;;;12.55;;
71622;SDS011;59473;53.214;5.728;2022-12-18T12:40:34;15.37;;;11.30;;
71622;SDS011;59473;53.214;5.728;2022-12-18T12:43:02;21.75;;;12.30;;
71622;SDS011;59473;53.214;5.728;2022-12-18T12:45:57;20.30;;;12.65;;
71622;SDS011;59473;53.214;5.728;2022-12-18T12:48:33;18.45;;;11.88;;
71622;SDS011;59473;53.214;5.728;2022-12-18T12:51:00;14.82;;;10.50;;
71622;SDS011;59473;53.214;5.728;2022-12-18T12:53:29;17.27;;;11.33;;
71622;SDS011;59473;53.214;5.728;2022-12-18T12:55:55;16.23;;;11.52;;
71622;SDS011;59473;53.214;5.728;2022-12-18T13:05:56;30.47;;;16.70;;
71622;SDS011;59473;53.214;5.728;2022-12-18T13:08:26;16.75;;;11.20;;
71622;SDS011;59473;53.214;5.728;2022-12-18T13:10:52;16.58;;;11.77;;
71622;SDS011;59473;53.214;5.728;2022-12-18T13:13:48;30.87;;;17.60;;
71622;SDS011;59473;53.214;5.728;2022-12-18T13:16:13;24.58;;;15.48;;
71622;SDS011;59473;53.214;5.728;2022-12-18T13:18:48;39.90;;;22.27;;
71622;SDS011;59473;53.214;5.728;2022-12-18T13:21:29;16.73;;;12.07;;
71622;SDS011;59473;53.214;5.728;2022-12-18T13:23:56;26.15;;;14.73;;
71622;SDS011;59473;53.214;5.728;2022-12-18T13:33:47;20.75;;;13.18;;
71622;SDS011;59473;53.214;5.728;2022-12-18T13:38:41;14.60;;;10.25;;
71622;SDS011;59473;53.214;5.728;2022-12-18T13:43:48;16.27;;;10.30;;
71622;SDS011;59473;53.214;5.728;2022-12-18T13:48:43;16.47;;;11.37;;
71622;SDS011;59473;53.214;5.728;2022-12-18T13:51:13;15.73;;;11.25;;
71622;SDS011;59473;53.214;5.728;2022-12-18T13:53:43;15.65;;;11.07;;
71622;SDS011;59473;53.214;5.728;2022-12-18T13:56:09;13.80;;;10.13;;
71622;SDS011;59473;53.214;5.728;2022-12-18T13:58:40;13.70;;;9.60;;
71622;SDS011;59473;53.214;5.728;2022-12-18T14:01:10;17.57;;;10.90;;
71622;SDS011;59473;53.214;5.728;2022-12-18T14:04:09;13.43;;;10.03;;
71622;SDS011;59473;53.214;5.728;2022-12-18T14:06:34;47.42;;;22.27;;
71622;SDS011;59473;53.214;5.728;2022-12-18T14:15:14;42.40;;;23.40;;
71622;SDS011;59473;53.214;5.728;2022-12-18T14:24:15;16.23;;;11.25;;
71622;SDS011;59473;53.214;5.728;2022-12-18T14:29:46;16.35;;;11.57;;
71622;SDS011;59473;53.214;5.728;2022-12-18T14:35:14;16.13;;;10.40;;
71622;SDS011;59473;53.214;5.728;2022-12-18T14:37:40;13.88;;;10.60;;
71622;SDS011;59473;53.214;5.728;2022-12-18T14:40:05;13.93;;;8.50;;
71622;SDS011;59473;53.214;5.728;2022-12-18T15:00:10;15.65;;;10.48;;
71622;SDS011;59473;53.214;5.728;2022-12-18T15:02:40;14.02;;;9.35;;
71622;SDS011;59473;53.214;5.728;2022-12-18T15:05:16;13.10;;;10.43;;
71622;SDS011;59473;53.214;5.728;2022-12-18T15:24:18;13.85;;;9.07;;
71622;SDS011;59473;53.214;5.728;2022-12-18T15:26:45;13.00;;;7.47;;
71622;SDS011;59473;53.214;5.728;2022-12-18T15:29:20;13.23;;;9.20;;
71622;SDS011;59473;53.214;5.728;2022-12-18T15:34:25;12.40;;;9.50;;
71622;SDS011;59473;53.214;5.728;2022-12-18T15:36:51;14.70;;;8.85;;
71622;SDS011;59473;53.214;5.728;2022-12-18T15:39:16;14.17;;;9.73;;
71622;SDS011;59473;53.214;5.728;2022-12-18T15:41:41;15.27;;;10.40;;
71622;SDS011;59473;53.214;5.728;2022-12-18T15:44:26;13.35;;;10.05;;
71622;SDS011;59473;53.214;5.728;2022-12-18T15:46:52;12.50;;;8.70;;
71622;SDS011;59473;53.214;5.728;2022-12-18T15:49:17;12.70;;;9.17;;
71622;SDS011;59473;53.214;5.728;2022-12-18T15:51:42;12.27;;;8.40;;
71622;SDS011;59473;53.214;5.728;2022-12-18T15:54:09;15.97;;;9.53;;
71622;SDS011;59473;53.214;5.728;2022-12-18T15:56:36;10.52;;;9.20;;
71622;SDS011;59473;53.214;5.728;2022-12-18T15:59:20;13.23;;;8.30;;
71622;SDS011;59473;53.214;5.728;2022-12-18T16:01:47;16.30;;;8.98;;
71622;SDS011;59473;53.214;5.728;2022-12-18T16:04:13;13.88;;;9.32;;
71622;SDS011;59473;53.214;5.728;2022-12-18T16:06:39;13.30;;;10.10;;
71622;SDS011;59473;53.214;5.728;2022-12-18T16:09:04;16.70;;;11.98;;
71622;SDS011;59473;53.214;5.728;2022-12-18T16:11:30;17.73;;;9.43;;
71622;SDS011;59473;53.214;5.728;2022-12-18T16:17:00;14.20;;;9.10;;
71622;SDS011;59473;53.214;5.728;2022-12-18T16:19:26;12.85;;;9.18;;
71622;SDS011;59473;53.214;5.728;2022-12-18T16:21:52;12.73;;;9.43;;
71622;SDS011;59473;53.214;5.728;2022-12-18T16:24:18;14.65;;;9.30;;
71622;SDS011;59473;53.214;5.728;2022-12-18T16:26:44;16.85;;;9.57;;
71622;SDS011;59473;53.214;5.728;2022-12-18T16:29:09;11.23;;;8.13;;
71622;SDS011;59473;53.214;5.728;2022-12-18T16:31:35;13.73;;;10.30;;
71622;SDS011;59473;53.214;5.728;2022-12-18T16:34:20;17.20;;;9.43;;
71622;SDS011;59473;53.214;5.728;2022-12-18T16:36:50;20.00;;;12.23;;
71622;SDS011;59473;53.214;5.728;2022-12-18T16:39:16;20.50;;;11.50;;
71622;SDS011;59473;53.214;5.728;2022-12-18T16:41:42;20.93;;;13.40;;
71622;SDS011;59473;53.214;5.728;2022-12-18T16:44:07;14.20;;;9.70;;
71622;SDS011;59473;53.214;5.728;2022-12-18T16:46:32;21.00;;;12.67;;
71622;SDS011;59473;53.214;5.728;2022-12-18T16:48:58;23.93;;;14.87;;
71622;SDS011;59473;53.214;5.728;2022-12-18T16:51:24;15.10;;;10.27;;
71622;SDS011;59473;53.214;5.728;2022-12-18T16:53:49;15.70;;;10.83;;
71622;SDS011;59473;53.214;5.728;2022-12-18T16:56:14;17.63;;;12.00;;
71622;SDS011;59473;53.214;5.728;2022-12-18T16:58:39;16.37;;;10.97;;
71622;SDS011;59473;53.214;5.728;2022-12-18T17:01:09;13.97;;;9.10;;
71622;SDS011;59473;53.214;5.728;2022-12-18T17:03:34;15.63;;;9.45;;
71622;SDS011;59473;53.214;5.728;2022-12-18T17:06:03;16.93;;;10.63;;